Main page
METAR-TAF:

METAR-TAF

Airports :

Cazaux Air Base

Cazaux, France

latitude: 44-32N, longitude: 001-08W, elevation: 25 m

Current weather observation

The report was made 41 minutes ago, at 23:00 UTC
Wind 5 kt from the West/Southwest
Temperature 15°C
Humidity 82%
Pressure 1024 hPa
Visibility 10 km or more
Broken clouds at a height of 2500 ft
Overcast at a height of 3100 ft

METAR: LFBC 282300Z AUTO 25005KT 9999 BKN025 OVC031 15/12 Q1024

Time: 00:41 (23:41 UTC)

Forecast

The report was made 9 hours and 41 minutes ago, at 14:00 UTC
Forecast valid from 28 at 15 UTC to 29 at 15 UTC
Wind 10 kt from the West/Southwest
Visibility 10 km or more
Broken clouds at a height of 3000 ft
Temporary
from 29 at 03 UTC to 29 at 06 UTC
Broken clouds at a height of 1400 ft
Temporary
from 29 at 08 UTC to 29 at 11 UTC
Wind 5 kt from the South

TAF: LFBC 281400Z 2815/2915 25010KT 9999 BKN030 TEMPO 2903/2906 BKN014 TEMPO 2908/2911 18005KT

Weather observations and forecasts of more than 4000 airports (METAR and TAF reports).

The available stations are represented by yellow and red dots on the map.

Hover mouse over dot to see the name of the station.

Then click to see weather observations and forecasts.

To change the map : click on the green buttons with a black cross to zoom in, on the green button with a dash to zoom out, or on the green arrows for adjacent maps.


METAR-TAF: